createdAt,value
2023-05-13T00:00:44.199Z,9.80
2023-05-13T00:06:13.252Z,9.80
2023-05-13T00:11:41.981Z,9.70
2023-05-13T00:17:10.275Z,9.70
2023-05-13T00:22:38.361Z,9.70
2023-05-13T00:28:06.614Z,9.60
2023-05-13T00:33:34.358Z,9.60
2023-05-13T00:39:02.275Z,9.60
2023-05-13T00:44:30.754Z,9.50
2023-05-13T00:49:58.775Z,9.50
2023-05-13T00:55:26.808Z,9.50
2023-05-13T01:01:13.834Z,9.40
2023-05-13T01:06:44.933Z,9.30
2023-05-13T01:12:22.481Z,9.30
2023-05-13T01:17:55.229Z,9.30
2023-05-13T01:23:23.664Z,9.30
2023-05-13T01:28:52.131Z,9.30
2023-05-13T01:34:22.900Z,9.20
2023-05-13T01:39:51.316Z,9.20
2023-05-13T01:45:19.761Z,9.20
2023-05-13T01:50:48.458Z,9.20
2023-05-13T01:56:16.901Z,9.10
2023-05-13T02:01:45.907Z,9.10
2023-05-13T02:07:13.716Z,9.10
2023-05-13T02:12:41.926Z,9.10
2023-05-13T02:18:09.750Z,9.10
2023-05-13T02:23:38.196Z,9.10
2023-05-13T02:29:06.343Z,9.20
2023-05-13T02:34:34.686Z,9.20
2023-05-13T02:40:03.589Z,9.10
2023-05-13T02:45:33.112Z,9.10
2023-05-13T02:51:02.300Z,9.10
2023-05-13T02:56:30.677Z,9.20
2023-05-13T03:01:59.088Z,9.20
2023-05-13T03:07:27.785Z,9.20
2023-05-13T03:12:55.932Z,9.20
2023-05-13T03:18:23.686Z,9.10
2023-05-13T03:23:52.302Z,9.10
2023-05-13T03:29:22.419Z,9.10
2023-05-13T03:34:52.277Z,9.10
2023-05-13T03:40:20.790Z,9.10
2023-05-13T03:45:52.123Z,9.10
2023-05-13T03:51:22.923Z,9.00
2023-05-13T03:56:51.947Z,9.00
2023-05-13T04:02:21.829Z,9.00
2023-05-13T04:07:50.102Z,9.00
2023-05-13T04:13:17.848Z,9.00
2023-05-13T04:18:46.021Z,8.90
2023-05-13T04:24:14.151Z,8.90
2023-05-13T04:29:45.328Z,8.80
2023-05-13T04:35:14.963Z,8.80
2023-05-13T04:40:47.417Z,8.80
2023-05-13T04:46:20.028Z,8.90
2023-05-13T04:51:49.951Z,8.90
2023-05-13T04:57:19.302Z,8.80
2023-05-13T05:02:47.541Z,8.80
2023-05-13T05:08:16.420Z,8.80
2023-05-13T05:13:46.070Z,8.80
2023-05-13T05:19:17.300Z,8.80
2023-05-13T05:24:48.178Z,8.80
2023-05-13T05:30:16.231Z,8.90
2023-05-13T05:35:48.992Z,8.90
2023-05-13T05:41:18.772Z,8.90
2023-05-13T05:46:48.986Z,8.90
2023-05-13T05:52:18.040Z,8.90
2023-05-13T05:57:46.399Z,8.90
2023-05-13T06:03:15.518Z,8.90
2023-05-13T06:08:44.044Z,8.90
2023-05-13T06:14:12.274Z,8.90
2023-05-13T06:19:42.589Z,8.90
2023-05-13T06:25:11.025Z,9.00
2023-05-13T06:30:39.393Z,9.00
2023-05-13T06:36:07.922Z,9.00
2023-05-13T06:41:36.382Z,9.00
2023-05-13T06:47:14.875Z,9.10
2023-05-13T06:52:43.799Z,9.10
2023-05-13T06:58:12.085Z,9.20
2023-05-13T07:03:40.383Z,9.30
2023-05-13T07:09:09.840Z,9.30
2023-05-13T07:14:37.949Z,9.40
2023-05-13T07:20:06.797Z,9.40
2023-05-13T07:25:34.476Z,9.40
2023-05-13T07:31:04.837Z,9.40
2023-05-13T07:36:33.154Z,9.30
2023-05-13T07:42:01.407Z,9.30
2023-05-13T07:47:29.519Z,9.30
2023-05-13T07:52:59.678Z,9.30
2023-05-13T07:58:30.393Z,9.30
2023-05-13T08:03:58.851Z,9.40
2023-05-13T08:09:27.431Z,9.40
2023-05-13T08:14:55.560Z,9.40
2023-05-13T08:20:29.749Z,9.40
2023-05-13T08:25:59.558Z,9.40
2023-05-13T08:31:27.890Z,9.50
2023-05-13T08:36:56.060Z,9.60
2023-05-13T08:42:33.242Z,9.60
2023-05-13T08:48:03.207Z,9.60
2023-05-13T08:53:31.964Z,9.70
2023-05-13T08:59:00.332Z,9.80
2023-05-13T09:04:29.503Z,9.80
2023-05-13T09:09:58.300Z,9.80
2023-05-13T09:15:27.640Z,9.80
2023-05-13T09:20:55.968Z,9.80
2023-05-13T09:26:28.530Z,9.90
2023-05-13T09:31:59.362Z,10.00
2023-05-13T09:37:27.606Z,10.20
2023-05-13T09:43:00.527Z,10.40
2023-05-13T09:48:31.428Z,10.60
2023-05-13T09:54:09.137Z,10.80
2023-05-13T09:59:37.128Z,10.90
2023-05-13T10:05:08.878Z,11.00
2023-05-13T10:10:37.201Z,10.90
2023-05-13T10:16:05.743Z,11.00
2023-05-13T10:21:36.920Z,11.00
2023-05-13T10:27:07.058Z,11.10
2023-05-13T10:32:38.364Z,11.20
2023-05-13T10:38:42.545Z,11.30
2023-05-13T10:44:11.014Z,11.50
2023-05-13T10:49:39.737Z,11.50
2023-05-13T10:55:21.385Z,11.50
2023-05-13T11:00:50.960Z,11.40
2023-05-13T11:06:27.204Z,11.20
2023-05-13T11:11:57.990Z,11.20
2023-05-13T11:17:26.225Z,11.30
2023-05-13T11:22:58.658Z,11.50
2023-05-13T11:29:04.401Z,11.70
2023-05-13T11:34:33.958Z,11.80
2023-05-13T11:40:05.552Z,11.90
2023-05-13T11:45:38.311Z,12.20
2023-05-13T11:51:06.791Z,12.20
2023-05-13T11:56:34.723Z,12.30
2023-05-13T12:02:03.357Z,12.20
2023-05-13T12:07:33.647Z,12.10
2023-05-13T12:13:02.746Z,12.10
2023-05-13T12:18:32.594Z,12.20
2023-05-13T12:24:01.200Z,12.40
2023-05-13T12:29:38.965Z,12.40
2023-05-13T12:35:17.990Z,12.50
2023-05-13T12:40:53.720Z,12.40
2023-05-13T12:46:22.166Z,12.40
2023-05-13T12:51:51.906Z,12.40
2023-05-13T12:57:21.327Z,12.40
2023-05-13T13:02:50.349Z,12.40
2023-05-13T13:08:18.628Z,12.40
2023-05-13T13:13:48.235Z,12.40
2023-05-13T13:19:17.476Z,12.50
2023-05-13T13:24:45.737Z,12.50
2023-05-13T13:30:14.626Z,12.60
2023-05-13T13:35:47.326Z,12.80
2023-05-13T13:41:15.402Z,12.90
2023-05-13T13:46:43.928Z,13.00
2023-05-13T13:52:12.187Z,13.20
2023-05-13T13:57:40.342Z,13.60
2023-05-13T14:03:08.666Z,13.80
2023-05-13T14:08:37.100Z,14.10
2023-05-13T14:14:05.575Z,14.20
2023-05-13T14:19:33.564Z,14.40
2023-05-13T14:25:02.062Z,14.60
2023-05-13T14:30:30.296Z,14.80
2023-05-13T14:35:59.225Z,14.80
2023-05-13T14:41:29.507Z,15.10
2023-05-13T14:46:58.154Z,15.30
2023-05-13T14:52:26.632Z,15.70
2023-05-13T14:57:55.407Z,16.40
2023-05-13T15:03:24.052Z,16.20
2023-05-13T15:08:53.977Z,16.10
2023-05-13T15:14:26.010Z,15.70
2023-05-13T15:19:54.620Z,15.40
2023-05-13T15:25:22.875Z,15.30
2023-05-13T15:30:51.669Z,15.20
2023-05-13T15:36:20.016Z,15.20
2023-05-13T15:41:49.229Z,15.00
2023-05-13T15:47:17.451Z,14.90
2023-05-13T15:52:45.758Z,14.80
2023-05-13T15:58:13.916Z,14.60
2023-05-13T16:03:42.021Z,14.50
2023-05-13T16:09:10.951Z,14.40
2023-05-13T16:14:39.321Z,14.30
2023-05-13T16:20:10.157Z,14.20
2023-05-13T16:25:39.981Z,14.20
2023-05-13T16:31:08.303Z,14.10
2023-05-13T16:36:36.734Z,14.10
2023-05-13T16:42:05.439Z,14.10
2023-05-13T16:47:33.866Z,14.10
2023-05-13T16:53:02.279Z,14.10
2023-05-13T16:58:30.809Z,14.10
2023-05-13T17:03:58.980Z,14.10
2023-05-13T17:09:27.535Z,14.10
2023-05-13T17:14:55.897Z,14.10
2023-05-13T17:20:24.075Z,14.00
2023-05-13T17:25:52.382Z,14.00
2023-05-13T17:31:20.523Z,13.90
2023-05-13T17:36:50.123Z,13.80
2023-05-13T17:42:21.669Z,13.70
2023-05-13T17:47:50.209Z,13.70
2023-05-13T17:53:19.014Z,13.60
2023-05-13T17:58:46.969Z,13.60
2023-05-13T18:04:15.322Z,13.50
2023-05-13T18:09:43.741Z,13.50
2023-05-13T18:15:11.606Z,13.50
2023-05-13T18:20:40.616Z,13.40
2023-05-13T18:26:08.757Z,13.40
2023-05-13T18:31:36.904Z,13.40
2023-05-13T18:37:06.134Z,13.40
2023-05-13T18:42:34.337Z,13.30
2023-05-13T18:48:02.744Z,13.30
2023-05-13T18:53:31.186Z,13.30
2023-05-13T18:58:59.649Z,13.20
2023-05-13T19:04:28.161Z,13.20
2023-05-13T19:09:56.442Z,13.10
2023-05-13T19:15:25.407Z,13.10
2023-05-13T19:20:53.771Z,13.00
2023-05-13T19:26:22.405Z,12.90
2023-05-13T19:31:50.980Z,12.80
2023-05-13T19:37:19.290Z,12.60
2023-05-13T19:42:47.570Z,12.50
2023-05-13T19:48:15.849Z,12.30
2023-05-13T19:53:43.958Z,12.20
2023-05-13T19:59:12.184Z,12.00
2023-05-13T20:04:40.253Z,11.90
2023-05-13T20:10:10.352Z,11.90
2023-05-13T20:15:39.001Z,11.80
2023-05-13T20:21:07.516Z,11.80
2023-05-13T20:26:36.720Z,11.70
2023-05-13T20:32:06.582Z,11.60
2023-05-13T20:37:35.148Z,11.60
2023-05-13T20:43:07.693Z,11.50
2023-05-13T20:48:36.748Z,11.50
2023-05-13T20:54:05.109Z,11.50
2023-05-13T20:59:34.528Z,11.60
2023-05-13T21:05:03.792Z,11.60
2023-05-13T21:10:32.242Z,11.60
2023-05-13T21:16:03.074Z,11.60
2023-05-13T21:21:32.282Z,11.60
2023-05-13T21:27:00.593Z,11.50
2023-05-13T21:32:28.713Z,11.50
2023-05-13T21:38:04.780Z,11.50
2023-05-13T21:43:43.842Z,11.60
2023-05-13T21:49:12.044Z,11.60
2023-05-13T21:54:41.404Z,11.60
2023-05-13T22:00:15.207Z,11.60
2023-05-13T22:05:46.092Z,11.50
2023-05-13T22:11:14.238Z,11.50
2023-05-13T22:16:45.257Z,11.40
2023-05-13T22:22:16.237Z,11.40
2023-05-13T22:27:44.424Z,11.30
2023-05-13T22:33:12.869Z,11.30
2023-05-13T22:38:45.735Z,11.20
2023-05-13T22:44:14.967Z,11.20
2023-05-13T22:49:44.161Z,11.20
2023-05-13T22:55:12.297Z,11.20
2023-05-13T23:00:41.934Z,11.20
2023-05-13T23:06:13.508Z,11.20
2023-05-13T23:11:41.787Z,11.10
2023-05-13T23:17:10.029Z,11.20
2023-05-13T23:22:38.695Z,11.20
2023-05-13T23:28:07.032Z,11.10
2023-05-13T23:33:35.334Z,11.00
2023-05-13T23:39:03.717Z,11.10
2023-05-13T23:44:31.920Z,11.00
2023-05-13T23:50:00.266Z,11.00
2023-05-13T23:55:28.377Z,10.90
